JEF22 EDDL-EFHK
Flight info
| Callsign | JEF22 |
|---|---|
| Flight time | 1h 51m |
| Altitude | 41000 |
| Route | MEVEL1Z MEVEL Y850 BASUM DCT KOKOR DCT KOTAM DCT ALAMI DCT OKEVU DCT EVADI Y370 DIVAM |
| Aircraft | CL60/M-SBDE1E2E3FGHIJ1J3J4J5J7M3P2RWXYZ/LB1V1D1 |
Departure
| Time | 2026-05-07 17:05 |
|---|---|
| Airport | Düsseldorf Airport (EDDL) |
Arrival
| Time | 2026-05-07 18:56 |
|---|---|
| Airport | Helsinki Vantaa Airport (EFHK) |
| Time | Latitude | Longitude | Altitude | Speed | Heading |
|---|---|---|---|---|---|
| 2026-05-07 16:43 | 51.27405 | 6.75409 | 125 ft | 0 kts | 257° |
| 2026-05-07 17:02 | 51.27405 | 6.75399 | 125 ft | 4 kts | 268° |
| 2026-05-07 17:02 | 51.27442 | 6.75354 | 124 ft | 9 kts | 346° |
| 2026-05-07 17:02 | 51.27480 | 6.75280 | 124 ft | 9 kts | 286° |
| 2026-05-07 17:03 | 51.27539 | 6.75204 | 123 ft | 13 kts | 341° |
| 2026-05-07 17:03 | 51.27639 | 6.75181 | 123 ft | 15 kts | 5° |
| 2026-05-07 17:03 | 51.27745 | 6.75216 | 123 ft | 13 kts | 44° |
| 2026-05-07 17:03 | 51.27807 | 6.75344 | 124 ft | 14 kts | 44° |
| 2026-05-07 17:04 | 51.27900 | 6.75302 | 123 ft | 16 kts | 334° |
| 2026-05-07 17:04 | 51.27996 | 6.75272 | 123 ft | 12 kts | 49° |
| 2026-05-07 17:04 | 51.28179 | 6.75656 | 126 ft | 92 kts | 53° |
| 2026-05-07 17:04 | 51.28738 | 6.76830 | 294 ft | 160 kts | 53° |
| 2026-05-07 17:05 | 51.29476 | 6.78399 | 909 ft | 199 kts | 53° |
| 2026-05-07 17:05 | 51.30361 | 6.80265 | 1757 ft | 224 kts | 52° |
| 2026-05-07 17:05 | 51.31334 | 6.82307 | 2814 ft | 242 kts | 52° |
| 2026-05-07 17:05 | 51.32357 | 6.84457 | 3936 ft | 255 kts | 52° |
| 2026-05-07 17:06 | 51.33418 | 6.86736 | 4759 ft | 267 kts | 53° |
| 2026-05-07 17:06 | 51.34580 | 6.89072 | 6033 ft | 275 kts | 42° |
| 2026-05-07 17:06 | 51.36142 | 6.90625 | 7553 ft | 273 kts | 19° |
| 2026-05-07 17:06 | 51.37974 | 6.91269 | 8865 ft | 278 kts | 8° |
| 2026-05-07 17:07 | 51.39899 | 6.91764 | 10127 ft | 287 kts | 8° |
| 2026-05-07 17:07 | 51.41913 | 6.92291 | 10986 ft | 309 kts | 8° |
| 2026-05-07 17:07 | 51.44133 | 6.92875 | 11727 ft | 332 kts | 8° |
| 2026-05-07 17:07 | 51.46471 | 6.93492 | 12490 ft | 350 kts | 8° |
| 2026-05-07 17:08 | 51.48887 | 6.94102 | 13436 ft | 360 kts | 5° |
| 2026-05-07 17:08 | 51.51407 | 6.93926 | 14481 ft | 364 kts | 349° |
| 2026-05-07 17:08 | 51.53931 | 6.93207 | 15474 ft | 370 kts | 349° |
| 2026-05-07 17:08 | 51.56456 | 6.92492 | 16456 ft | 376 kts | 349° |
| 2026-05-07 17:09 | 51.59056 | 6.91758 | 17398 ft | 381 kts | 349° |
| 2026-05-07 17:09 | 51.61669 | 6.91021 | 18293 ft | 386 kts | 349° |
| 2026-05-07 17:09 | 51.64320 | 6.90275 | 19152 ft | 390 kts | 349° |
| 2026-05-07 17:09 | 51.67017 | 6.89990 | 19990 ft | 397 kts | 2° |
| 2026-05-07 17:10 | 51.69740 | 6.90870 | 20804 ft | 403 kts | 18° |
| 2026-05-07 17:10 | 51.72237 | 6.92980 | 21561 ft | 410 kts | 35° |
| 2026-05-07 17:10 | 51.74257 | 6.96244 | 22266 ft | 417 kts | 51° |
| 2026-05-07 17:10 | 51.75990 | 7.00026 | 22915 ft | 423 kts | 53° |
| 2026-05-07 17:11 | 51.77725 | 7.03828 | 23598 ft | 427 kts | 53° |
| 2026-05-07 17:11 | 51.79499 | 7.07717 | 24287 ft | 431 kts | 53° |
| 2026-05-07 17:11 | 51.81271 | 7.11608 | 24942 ft | 434 kts | 53° |
| 2026-05-07 17:11 | 51.83081 | 7.15591 | 25562 ft | 438 kts | 53° |
| 2026-05-07 17:12 | 51.84888 | 7.19569 | 26139 ft | 442 kts | 53° |
| 2026-05-07 17:12 | 51.86858 | 7.23335 | 26688 ft | 445 kts | 45° |
| 2026-05-07 17:12 | 51.88998 | 7.26922 | 27197 ft | 448 kts | 45° |
| 2026-05-07 17:12 | 51.91185 | 7.30596 | 27701 ft | 451 kts | 45° |
| 2026-05-07 17:13 | 51.93356 | 7.34257 | 28179 ft | 454 kts | 45° |
| 2026-05-07 17:13 | 51.95554 | 7.37968 | 28639 ft | 457 kts | 45° |
| 2026-05-07 17:13 | 51.97774 | 7.41723 | 29080 ft | 460 kts | 45° |
| 2026-05-07 17:13 | 51.99987 | 7.45475 | 29496 ft | 463 kts | 45° |
| 2026-05-07 17:14 | 52.02228 | 7.49281 | 29958 ft | 463 kts | 45° |
| 2026-05-07 17:14 | 52.04505 | 7.53156 | 30523 ft | 462 kts | 45° |
| 2026-05-07 17:14 | 52.06704 | 7.56904 | 31090 ft | 459 kts | 45° |
| 2026-05-07 17:14 | 52.08911 | 7.60675 | 31614 ft | 456 kts | 45° |
| 2026-05-07 17:15 | 52.11160 | 7.64472 | 32109 ft | 454 kts | 44° |
| 2026-05-07 17:15 | 52.13377 | 7.68158 | 32557 ft | 453 kts | 45° |
| 2026-05-07 17:15 | 52.15587 | 7.71836 | 32997 ft | 451 kts | 45° |
| 2026-05-07 17:15 | 52.17799 | 7.75527 | 33428 ft | 450 kts | 45° |
| 2026-05-07 17:16 | 52.19958 | 7.79183 | 33848 ft | 448 kts | 46° |
| 2026-05-07 17:16 | 52.22123 | 7.82876 | 34230 ft | 447 kts | 46° |
| 2026-05-07 17:16 | 52.24269 | 7.86543 | 34578 ft | 447 kts | 46° |
| 2026-05-07 17:16 | 52.26410 | 7.90204 | 34894 ft | 446 kts | 46° |
| 2026-05-07 17:17 | 52.28537 | 7.93848 | 35129 ft | 447 kts | 46° |
| 2026-05-07 17:17 | 52.30682 | 7.97530 | 35352 ft | 447 kts | 46° |
| 2026-05-07 17:17 | 52.32831 | 8.01222 | 35571 ft | 448 kts | 46° |
| 2026-05-07 17:17 | 52.34983 | 8.04926 | 35777 ft | 448 kts | 46° |
| 2026-05-07 17:18 | 52.37105 | 8.08583 | 35975 ft | 449 kts | 46° |
| 2026-05-07 17:18 | 52.39275 | 8.12330 | 36177 ft | 449 kts | 46° |
| 2026-05-07 17:18 | 52.41426 | 8.16050 | 36371 ft | 449 kts | 46° |
| 2026-05-07 17:18 | 52.43571 | 8.19764 | 36568 ft | 449 kts | 46° |
| 2026-05-07 17:19 | 52.45699 | 8.23455 | 36749 ft | 449 kts | 46° |
| 2026-05-07 17:19 | 52.47842 | 8.27178 | 36908 ft | 450 kts | 46° |
| 2026-05-07 17:19 | 52.50000 | 8.30933 | 37069 ft | 451 kts | 46° |
| 2026-05-07 17:19 | 52.52145 | 8.34671 | 37214 ft | 452 kts | 46° |
| 2026-05-07 17:20 | 52.54304 | 8.38439 | 37365 ft | 453 kts | 46° |
| 2026-05-07 17:20 | 52.56452 | 8.42193 | 37510 ft | 453 kts | 46° |
| 2026-05-07 17:20 | 52.58600 | 8.45953 | 37661 ft | 454 kts | 46° |
| 2026-05-07 17:20 | 52.60759 | 8.49739 | 37812 ft | 454 kts | 46° |
| 2026-05-07 17:21 | 52.62917 | 8.53528 | 37958 ft | 455 kts | 46° |
| 2026-05-07 17:21 | 52.65085 | 8.57342 | 38085 ft | 456 kts | 46° |
| 2026-05-07 17:21 | 52.67244 | 8.61144 | 38217 ft | 457 kts | 46° |
| 2026-05-07 17:21 | 52.69407 | 8.64959 | 38350 ft | 457 kts | 46° |
| 2026-05-07 17:22 | 52.71576 | 8.68793 | 38468 ft | 458 kts | 47° |
| 2026-05-07 17:22 | 52.73752 | 8.72644 | 38604 ft | 458 kts | 47° |
| 2026-05-07 17:22 | 52.75924 | 8.76495 | 38728 ft | 459 kts | 47° |
| 2026-05-07 17:22 | 52.78127 | 8.80315 | 38872 ft | 459 kts | 45° |
| 2026-05-07 17:23 | 52.80393 | 8.83994 | 39003 ft | 460 kts | 44° |
| 2026-05-07 17:23 | 52.82677 | 8.87686 | 39125 ft | 460 kts | 44° |
| 2026-05-07 17:23 | 52.84963 | 8.91392 | 39258 ft | 461 kts | 44° |
| 2026-05-07 17:23 | 52.87246 | 8.95100 | 39387 ft | 461 kts | 44° |
| 2026-05-07 17:24 | 52.89540 | 8.98832 | 39516 ft | 461 kts | 44° |
| 2026-05-07 17:24 | 52.91801 | 9.02519 | 39645 ft | 461 kts | 44° |
| 2026-05-07 17:24 | 52.94099 | 9.06270 | 39773 ft | 460 kts | 44° |
| 2026-05-07 17:24 | 52.96379 | 9.09999 | 39902 ft | 460 kts | 44° |
| 2026-05-07 17:25 | 52.98626 | 9.13679 | 40031 ft | 460 kts | 44° |
| 2026-05-07 17:25 | 53.00897 | 9.17406 | 40161 ft | 459 kts | 44° |
| 2026-05-07 17:25 | 53.03187 | 9.21171 | 40288 ft | 459 kts | 44° |
| 2026-05-07 17:25 | 53.05422 | 9.24850 | 40415 ft | 458 kts | 44° |
| 2026-05-07 17:26 | 53.07696 | 9.28601 | 40547 ft | 457 kts | 44° |
| 2026-05-07 17:26 | 53.09946 | 9.32317 | 40676 ft | 457 kts | 44° |
| 2026-05-07 17:26 | 53.12194 | 9.36037 | 40805 ft | 456 kts | 44° |
| 2026-05-07 17:26 | 53.14447 | 9.39769 | 40932 ft | 455 kts | 44° |
| 2026-05-07 17:27 | 53.16679 | 9.43474 | 41060 ft | 454 kts | 44° |
| 2026-05-07 17:27 | 53.18924 | 9.47206 | 41077 ft | 456 kts | 44° |
| 2026-05-07 17:27 | 53.23400 | 9.54665 | 41075 ft | 460 kts | 44° |
| 2026-05-07 17:28 | 53.27959 | 9.62286 | 41079 ft | 463 kts | 44° |
| 2026-05-07 17:28 | 53.32518 | 9.69931 | 41081 ft | 466 kts | 45° |
| 2026-05-07 17:29 | 53.37104 | 9.77647 | 41086 ft | 469 kts | 45° |
| 2026-05-07 17:29 | 53.41699 | 9.85403 | 41090 ft | 471 kts | 45° |
| 2026-05-07 17:30 | 53.46312 | 9.93217 | 41089 ft | 472 kts | 45° |
| 2026-05-07 17:30 | 53.50948 | 10.01094 | 41089 ft | 474 kts | 45° |
| 2026-05-07 17:31 | 53.55542 | 10.08925 | 41091 ft | 475 kts | 45° |
| 2026-05-07 17:31 | 53.60192 | 10.16879 | 41093 ft | 476 kts | 45° |
| 2026-05-07 17:32 | 53.64822 | 10.24823 | 41093 ft | 475 kts | 45° |
| 2026-05-07 17:32 | 53.69425 | 10.32750 | 41087 ft | 475 kts | 45° |
| 2026-05-07 17:33 | 53.74069 | 10.40773 | 41095 ft | 475 kts | 45° |
| 2026-05-07 17:33 | 53.78697 | 10.48797 | 41097 ft | 475 kts | 45° |
| 2026-05-07 17:34 | 53.83302 | 10.56805 | 41100 ft | 475 kts | 45° |
| 2026-05-07 17:34 | 53.87944 | 10.64908 | 41101 ft | 476 kts | 45° |
| 2026-05-07 17:35 | 53.92531 | 10.72940 | 41106 ft | 475 kts | 46° |
| 2026-05-07 17:35 | 53.97115 | 10.80995 | 41113 ft | 475 kts | 46° |
| 2026-05-07 17:36 | 54.01677 | 10.89038 | 41111 ft | 475 kts | 46° |
| 2026-05-07 17:36 | 54.06276 | 10.97173 | 41106 ft | 476 kts | 46° |
| 2026-05-07 17:37 | 54.10825 | 11.05248 | 41115 ft | 476 kts | 46° |
| 2026-05-07 17:37 | 54.15423 | 11.13439 | 41110 ft | 476 kts | 46° |
| 2026-05-07 17:38 | 54.19993 | 11.21606 | 41109 ft | 476 kts | 46° |
| 2026-05-07 17:38 | 54.24558 | 11.29794 | 41109 ft | 476 kts | 46° |
| 2026-05-07 17:39 | 54.29100 | 11.37968 | 41110 ft | 475 kts | 46° |
| 2026-05-07 17:39 | 54.33636 | 11.46158 | 41111 ft | 475 kts | 46° |
| 2026-05-07 17:40 | 54.38181 | 11.54392 | 41105 ft | 476 kts | 46° |
| 2026-05-07 17:40 | 54.42693 | 11.62596 | 41111 ft | 477 kts | 46° |
| 2026-05-07 17:41 | 54.47260 | 11.70885 | 41115 ft | 477 kts | 46° |
| 2026-05-07 17:41 | 54.51876 | 11.79040 | 41108 ft | 477 kts | 46° |
| 2026-05-07 17:42 | 54.56481 | 11.87203 | 41115 ft | 476 kts | 46° |
| 2026-05-07 17:42 | 54.61080 | 11.95384 | 41108 ft | 476 kts | 46° |
| 2026-05-07 17:43 | 54.65669 | 12.03577 | 41115 ft | 476 kts | 46° |
| 2026-05-07 17:43 | 54.70234 | 12.11757 | 41114 ft | 476 kts | 46° |
| 2026-05-07 17:44 | 54.74818 | 12.19998 | 41110 ft | 476 kts | 46° |
| 2026-05-07 17:44 | 54.79380 | 12.28231 | 41118 ft | 477 kts | 46° |
| 2026-05-07 17:45 | 54.83971 | 12.36544 | 41117 ft | 477 kts | 46° |
| 2026-05-07 17:45 | 54.88514 | 12.44800 | 41111 ft | 477 kts | 46° |
| 2026-05-07 17:46 | 54.93092 | 12.53148 | 41112 ft | 476 kts | 45° |
| 2026-05-07 17:46 | 54.97616 | 12.61428 | 41111 ft | 477 kts | 45° |
| 2026-05-07 17:47 | 55.02177 | 12.69805 | 41114 ft | 477 kts | 46° |
| 2026-05-07 17:47 | 55.06725 | 12.78187 | 41108 ft | 477 kts | 46° |
| 2026-05-07 17:48 | 55.11284 | 12.86620 | 41115 ft | 478 kts | 46° |
| 2026-05-07 17:48 | 55.15821 | 12.95043 | 41116 ft | 478 kts | 46° |
| 2026-05-07 17:49 | 55.20377 | 13.03530 | 41113 ft | 478 kts | 46° |
| 2026-05-07 17:49 | 55.24891 | 13.11968 | 41103 ft | 478 kts | 46° |
| 2026-05-07 17:50 | 55.29429 | 13.20484 | 41112 ft | 478 kts | 46° |
| 2026-05-07 17:50 | 55.33929 | 13.28958 | 41104 ft | 478 kts | 46° |
| 2026-05-07 17:51 | 55.38457 | 13.37516 | 41122 ft | 477 kts | 46° |
| 2026-05-07 17:51 | 55.42991 | 13.46115 | 41106 ft | 478 kts | 46° |
| 2026-05-07 17:52 | 55.47525 | 13.54746 | 41111 ft | 478 kts | 46° |
| 2026-05-07 17:52 | 55.52034 | 13.63362 | 41093 ft | 479 kts | 46° |
| 2026-05-07 17:53 | 55.56525 | 13.71973 | 41095 ft | 479 kts | 47° |
| 2026-05-07 17:53 | 55.61021 | 13.80627 | 41084 ft | 478 kts | 47° |
| 2026-05-07 17:54 | 55.65500 | 13.89279 | 41086 ft | 478 kts | 47° |
| 2026-05-07 17:54 | 55.69982 | 13.97969 | 41073 ft | 479 kts | 47° |
| 2026-05-07 17:55 | 55.74471 | 14.06702 | 41069 ft | 480 kts | 47° |
| 2026-05-07 17:55 | 55.78962 | 14.15474 | 41077 ft | 480 kts | 47° |
| 2026-05-07 17:56 | 55.83430 | 14.24234 | 41095 ft | 479 kts | 47° |
| 2026-05-07 17:56 | 55.87885 | 14.33000 | 41093 ft | 479 kts | 47° |
| 2026-05-07 17:57 | 55.91607 | 14.40348 | 41104 ft | 479 kts | 47° |
| 2026-05-07 17:57 | 55.96802 | 14.50644 | 41093 ft | 479 kts | 47° |
| 2026-05-07 17:58 | 56.01219 | 14.59432 | 41094 ft | 478 kts | 47° |
| 2026-05-07 17:58 | 56.05678 | 14.68336 | 41089 ft | 480 kts | 48° |
| 2026-05-07 17:59 | 56.10120 | 14.77240 | 41098 ft | 480 kts | 48° |
| 2026-05-07 17:59 | 56.14627 | 14.86127 | 41094 ft | 481 kts | 45° |
| 2026-05-07 18:00 | 56.19284 | 14.94688 | 41112 ft | 481 kts | 45° |
| 2026-05-07 18:00 | 56.23943 | 15.03285 | 41108 ft | 481 kts | 45° |
| 2026-05-07 18:01 | 56.28592 | 15.11901 | 41106 ft | 481 kts | 45° |
| 2026-05-07 18:01 | 56.33247 | 15.20562 | 41109 ft | 480 kts | 45° |
| 2026-05-07 18:02 | 56.40173 | 15.33511 | 41108 ft | 480 kts | 45° |
| 2026-05-07 18:03 | 56.44823 | 15.42247 | 41110 ft | 481 kts | 45° |
| 2026-05-07 18:03 | 56.49452 | 15.50975 | 41104 ft | 483 kts | 45° |
| 2026-05-07 18:04 | 56.54110 | 15.59791 | 41104 ft | 484 kts | 45° |
| 2026-05-07 18:04 | 56.58730 | 15.68572 | 41116 ft | 484 kts | 46° |
| 2026-05-07 18:05 | 56.63361 | 15.77406 | 41111 ft | 484 kts | 46° |
| 2026-05-07 18:05 | 56.67997 | 15.86283 | 41118 ft | 484 kts | 46° |
| 2026-05-07 18:06 | 56.72599 | 15.95129 | 41119 ft | 485 kts | 46° |
| 2026-05-07 18:06 | 56.77228 | 16.04061 | 41122 ft | 485 kts | 46° |
| 2026-05-07 18:07 | 56.81828 | 16.12973 | 41113 ft | 486 kts | 46° |
| 2026-05-07 18:07 | 56.86442 | 16.21945 | 41105 ft | 486 kts | 46° |
| 2026-05-07 18:08 | 56.91060 | 16.30959 | 41104 ft | 485 kts | 46° |
| 2026-05-07 18:08 | 56.95649 | 16.39952 | 41106 ft | 484 kts | 46° |
| 2026-05-07 18:09 | 57.00219 | 16.48943 | 41107 ft | 484 kts | 46° |
| 2026-05-07 18:09 | 57.04763 | 16.57916 | 41120 ft | 484 kts | 46° |
| 2026-05-07 18:10 | 57.09357 | 16.67025 | 41132 ft | 484 kts | 46° |
| 2026-05-07 18:10 | 57.13919 | 16.76104 | 41131 ft | 485 kts | 46° |
| 2026-05-07 18:11 | 57.18488 | 16.85235 | 41133 ft | 486 kts | 46° |
| 2026-05-07 18:11 | 57.23051 | 16.94387 | 41134 ft | 486 kts | 46° |
| 2026-05-07 18:12 | 57.27608 | 17.03565 | 41133 ft | 486 kts | 46° |
| 2026-05-07 18:12 | 57.32164 | 17.12777 | 41132 ft | 486 kts | 46° |
| 2026-05-07 18:13 | 57.36704 | 17.21993 | 41132 ft | 486 kts | 46° |
| 2026-05-07 18:13 | 57.41267 | 17.31294 | 41131 ft | 487 kts | 46° |
| 2026-05-07 18:14 | 57.45793 | 17.40554 | 41128 ft | 487 kts | 46° |
| 2026-05-07 18:14 | 57.50332 | 17.49877 | 41130 ft | 487 kts | 46° |
| 2026-05-07 18:15 | 57.54855 | 17.59206 | 41127 ft | 488 kts | 46° |
| 2026-05-07 18:15 | 57.59387 | 17.68592 | 41127 ft | 488 kts | 47° |
| 2026-05-07 18:16 | 57.63919 | 17.78014 | 41129 ft | 488 kts | 47° |
| 2026-05-07 18:16 | 57.68442 | 17.87456 | 41128 ft | 488 kts | 47° |
| 2026-05-07 18:17 | 57.72943 | 17.96890 | 41128 ft | 489 kts | 47° |
| 2026-05-07 18:17 | 57.77481 | 18.06439 | 41131 ft | 489 kts | 47° |
| 2026-05-07 18:18 | 57.81980 | 18.15946 | 41133 ft | 490 kts | 47° |
| 2026-05-07 18:18 | 57.86374 | 18.25703 | 41130 ft | 491 kts | 51° |
| 2026-05-07 18:19 | 57.90563 | 18.35845 | 41132 ft | 491 kts | 51° |
| 2026-05-07 18:19 | 57.94715 | 18.45925 | 41130 ft | 491 kts | 51° |
| 2026-05-07 18:20 | 57.98899 | 18.56121 | 41136 ft | 491 kts | 51° |
| 2026-05-07 18:20 | 58.03058 | 18.66292 | 41133 ft | 492 kts | 52° |
| 2026-05-07 18:21 | 58.07214 | 18.76500 | 41132 ft | 493 kts | 51° |
| 2026-05-07 18:21 | 58.11366 | 18.86739 | 41132 ft | 493 kts | 51° |
| 2026-05-07 18:22 | 58.15525 | 18.97038 | 41132 ft | 493 kts | 51° |
| 2026-05-07 18:22 | 58.19692 | 19.07400 | 41137 ft | 493 kts | 51° |
| 2026-05-07 18:23 | 58.23843 | 19.17768 | 41136 ft | 493 kts | 51° |
| 2026-05-07 18:23 | 58.27964 | 19.28101 | 41136 ft | 493 kts | 51° |
| 2026-05-07 18:24 | 58.32094 | 19.38503 | 41134 ft | 494 kts | 51° |
| 2026-05-07 18:24 | 58.36205 | 19.48902 | 41135 ft | 495 kts | 51° |
| 2026-05-07 18:25 | 58.40318 | 19.59354 | 41131 ft | 495 kts | 51° |
| 2026-05-07 18:25 | 58.44452 | 19.69902 | 41117 ft | 496 kts | 52° |
| 2026-05-07 18:26 | 58.48547 | 19.80398 | 41131 ft | 496 kts | 52° |
| 2026-05-07 18:26 | 58.52651 | 19.90962 | 41137 ft | 496 kts | 52° |
| 2026-05-07 18:27 | 58.56741 | 20.01541 | 41142 ft | 495 kts | 52° |
| 2026-05-07 18:27 | 58.60836 | 20.12178 | 41140 ft | 496 kts | 52° |
| 2026-05-07 18:28 | 58.64888 | 20.22751 | 41128 ft | 496 kts | 52° |
| 2026-05-07 18:28 | 58.68969 | 20.33446 | 41131 ft | 497 kts | 52° |
| 2026-05-07 18:29 | 58.73023 | 20.44119 | 41125 ft | 497 kts | 52° |
| 2026-05-07 18:29 | 58.77099 | 20.54896 | 41136 ft | 497 kts | 52° |
| 2026-05-07 18:30 | 58.81136 | 20.65619 | 41130 ft | 498 kts | 53° |
| 2026-05-07 18:30 | 58.85203 | 20.76472 | 41124 ft | 498 kts | 53° |
| 2026-05-07 18:31 | 58.89231 | 20.87271 | 41134 ft | 498 kts | 53° |
| 2026-05-07 18:31 | 58.93273 | 20.98155 | 41136 ft | 499 kts | 53° |
| 2026-05-07 18:32 | 58.97327 | 21.09124 | 41129 ft | 500 kts | 53° |
| 2026-05-07 18:32 | 59.01338 | 21.20024 | 41135 ft | 500 kts | 53° |
| 2026-05-07 18:33 | 59.05363 | 21.31018 | 41131 ft | 500 kts | 53° |
| 2026-05-07 18:33 | 59.09368 | 21.42003 | 41125 ft | 500 kts | 53° |
| 2026-05-07 18:34 | 59.13367 | 21.53027 | 41118 ft | 499 kts | 53° |
| 2026-05-07 18:34 | 59.17367 | 21.64102 | 41117 ft | 499 kts | 53° |
| 2026-05-07 18:35 | 59.21351 | 21.75185 | 41122 ft | 499 kts | 54° |
| 2026-05-07 18:35 | 59.25240 | 21.86410 | 40581 ft | 512 kts | 55° |
| 2026-05-07 18:35 | 59.27206 | 21.92257 | 40081 ft | 511 kts | 55° |
| 2026-05-07 18:36 | 59.29124 | 21.97970 | 39589 ft | 507 kts | 55° |
| 2026-05-07 18:36 | 59.31052 | 22.03718 | 39036 ft | 506 kts | 55° |
| 2026-05-07 18:36 | 59.32980 | 22.09482 | 38396 ft | 505 kts | 54° |
| 2026-05-07 18:36 | 59.34893 | 22.15217 | 37775 ft | 506 kts | 54° |
| 2026-05-07 18:37 | 59.36800 | 22.20946 | 37097 ft | 507 kts | 54° |
| 2026-05-07 18:37 | 59.38722 | 22.26738 | 36412 ft | 508 kts | 54° |
| 2026-05-07 18:37 | 59.40638 | 22.32526 | 35757 ft | 508 kts | 54° |
| 2026-05-07 18:37 | 59.42575 | 22.38391 | 35092 ft | 508 kts | 54° |
| 2026-05-07 18:38 | 59.44462 | 22.44119 | 34417 ft | 508 kts | 54° |
| 2026-05-07 18:38 | 59.46389 | 22.49982 | 33733 ft | 507 kts | 54° |
| 2026-05-07 18:38 | 59.48294 | 22.55796 | 33003 ft | 505 kts | 54° |
| 2026-05-07 18:38 | 59.50161 | 22.61506 | 32308 ft | 502 kts | 53° |
| 2026-05-07 18:39 | 59.52047 | 22.67286 | 31607 ft | 502 kts | 54° |
| 2026-05-07 18:39 | 59.53952 | 22.73136 | 30902 ft | 506 kts | 54° |
| 2026-05-07 18:39 | 59.55841 | 22.78956 | 30171 ft | 508 kts | 54° |
| 2026-05-07 18:39 | 59.57746 | 22.84839 | 29469 ft | 506 kts | 54° |
| 2026-05-07 18:40 | 59.59598 | 22.90577 | 28781 ft | 502 kts | 54° |
| 2026-05-07 18:40 | 59.61470 | 22.96388 | 28081 ft | 497 kts | 54° |
| 2026-05-07 18:40 | 59.63314 | 23.02130 | 27382 ft | 492 kts | 54° |
| 2026-05-07 18:40 | 59.65125 | 23.07780 | 26692 ft | 487 kts | 54° |
| 2026-05-07 18:41 | 59.66920 | 23.13395 | 25986 ft | 482 kts | 54° |
| 2026-05-07 18:41 | 59.68695 | 23.18961 | 25294 ft | 478 kts | 54° |
| 2026-05-07 18:41 | 59.70437 | 23.24432 | 24591 ft | 474 kts | 54° |
| 2026-05-07 18:41 | 59.72182 | 23.29931 | 24044 ft | 468 kts | 54° |
| 2026-05-07 18:42 | 59.73896 | 23.35340 | 23527 ft | 466 kts | 54° |
| 2026-05-07 18:42 | 59.75605 | 23.40749 | 23009 ft | 462 kts | 54° |
| 2026-05-07 18:42 | 59.77299 | 23.46122 | 22493 ft | 458 kts | 54° |
| 2026-05-07 18:42 | 59.78971 | 23.51438 | 21985 ft | 453 kts | 53° |
| 2026-05-07 18:43 | 59.80613 | 23.56674 | 21488 ft | 448 kts | 53° |
| 2026-05-07 18:43 | 59.82246 | 23.61891 | 21000 ft | 443 kts | 53° |
| 2026-05-07 18:43 | 59.83859 | 23.67053 | 20440 ft | 438 kts | 54° |
| 2026-05-07 18:43 | 59.85587 | 23.71969 | 19718 ft | 426 kts | 43° |
| 2026-05-07 18:44 | 59.87641 | 23.76206 | 18953 ft | 421 kts | 40° |
| 2026-05-07 18:44 | 59.89673 | 23.80288 | 18088 ft | 419 kts | 40° |
| 2026-05-07 18:44 | 59.91723 | 23.84383 | 17201 ft | 416 kts | 40° |
| 2026-05-07 18:44 | 59.93743 | 23.88410 | 16324 ft | 413 kts | 40° |
| 2026-05-07 18:45 | 59.95763 | 23.92427 | 15452 ft | 409 kts | 40° |
| 2026-05-07 18:45 | 59.97758 | 23.96374 | 14676 ft | 402 kts | 40° |
| 2026-05-07 18:45 | 59.99627 | 24.00055 | 14027 ft | 393 kts | 40° |
| 2026-05-07 18:45 | 60.01542 | 24.03804 | 13510 ft | 380 kts | 40° |
| 2026-05-07 18:46 | 60.03420 | 24.07462 | 13012 ft | 368 kts | 40° |
| 2026-05-07 18:46 | 60.05236 | 24.10976 | 12514 ft | 361 kts | 40° |
| 2026-05-07 18:46 | 60.07041 | 24.14427 | 12014 ft | 360 kts | 40° |
| 2026-05-07 18:46 | 60.08841 | 24.17830 | 11516 ft | 357 kts | 40° |
| 2026-05-07 18:47 | 60.10628 | 24.21187 | 11018 ft | 352 kts | 40° |
| 2026-05-07 18:47 | 60.12355 | 24.24419 | 10536 ft | 348 kts | 40° |
| 2026-05-07 18:47 | 60.14143 | 24.27693 | 10033 ft | 344 kts | 37° |
| 2026-05-07 18:47 | 60.16081 | 24.30431 | 9564 ft | 338 kts | 30° |
| 2026-05-07 18:48 | 60.18058 | 24.32975 | 9176 ft | 335 kts | 30° |
| 2026-05-07 18:48 | 60.19999 | 24.35443 | 8801 ft | 333 kts | 30° |
| 2026-05-07 18:48 | 60.21949 | 24.37912 | 8423 ft | 331 kts | 30° |
| 2026-05-07 18:48 | 60.23895 | 24.40361 | 8048 ft | 328 kts | 30° |
| 2026-05-07 18:49 | 60.25823 | 24.42778 | 7680 ft | 323 kts | 30° |
| 2026-05-07 18:49 | 60.27695 | 24.45126 | 7308 ft | 309 kts | 30° |
| 2026-05-07 18:49 | 60.29470 | 24.47356 | 6939 ft | 296 kts | 30° |
| 2026-05-07 18:49 | 60.31198 | 24.49527 | 6614 ft | 284 kts | 30° |
| 2026-05-07 18:50 | 60.32826 | 24.51572 | 6415 ft | 272 kts | 30° |
| 2026-05-07 18:50 | 60.34415 | 24.53575 | 6213 ft | 271 kts | 30° |
| 2026-05-07 18:50 | 60.36022 | 24.55602 | 6007 ft | 271 kts | 30° |
| 2026-05-07 18:50 | 60.37617 | 24.57617 | 5818 ft | 271 kts | 30° |
| 2026-05-07 18:51 | 60.39203 | 24.59628 | 5623 ft | 268 kts | 30° |
| 2026-05-07 18:51 | 60.40752 | 24.61603 | 5417 ft | 255 kts | 30° |
| 2026-05-07 18:51 | 60.42218 | 24.63482 | 5217 ft | 244 kts | 30° |
| 2026-05-07 18:51 | 60.43467 | 24.65639 | 4960 ft | 241 kts | 53° |
| 2026-05-07 18:52 | 60.44214 | 24.68655 | 4552 ft | 245 kts | 65° |
| 2026-05-07 18:52 | 60.44854 | 24.71834 | 4061 ft | 248 kts | 65° |
| 2026-05-07 18:52 | 60.45396 | 24.75165 | 3536 ft | 254 kts | 80° |
| 2026-05-07 18:52 | 60.45148 | 24.78670 | 3009 ft | 258 kts | 112° |
| 2026-05-07 18:53 | 60.44260 | 24.81817 | 2603 ft | 254 kts | 120° |
| 2026-05-07 18:53 | 60.43302 | 24.84699 | 2386 ft | 246 kts | 130° |
| 2026-05-07 18:53 | 60.42036 | 24.86935 | 2160 ft | 236 kts | 142° |
| 2026-05-07 18:53 | 60.40701 | 24.88658 | 1914 ft | 218 kts | 153° |
| 2026-05-07 18:54 | 60.39389 | 24.89927 | 1609 ft | 201 kts | 154° |
| 2026-05-07 18:54 | 60.38205 | 24.91119 | 1352 ft | 177 kts | 153° |
| 2026-05-07 18:54 | 60.37203 | 24.92153 | 1224 ft | 148 kts | 153° |
| 2026-05-07 18:54 | 60.36306 | 24.93071 | 960 ft | 140 kts | 154° |
| 2026-05-07 18:55 | 60.35468 | 24.93956 | 745 ft | 133 kts | 153° |
| 2026-05-07 18:55 | 60.34658 | 24.94791 | 585 ft | 129 kts | 154° |
| 2026-05-07 18:55 | 60.33866 | 24.95602 | 411 ft | 126 kts | 155° |
| 2026-05-07 18:55 | 60.33094 | 24.96382 | 246 ft | 122 kts | 154° |
| 2026-05-07 18:56 | 60.32379 | 24.97114 | 188 ft | 101 kts | 153° |
| 2026-05-07 18:56 | 60.31931 | 24.97573 | 188 ft | 44 kts | 153° |
| 2026-05-07 18:56 | 60.31690 | 24.97822 | 188 ft | 44 kts | 154° |
| 2026-05-07 18:56 | 60.31409 | 24.98108 | 188 ft | 46 kts | 153° |
| 2026-05-07 18:57 | 60.31112 | 24.98409 | 188 ft | 42 kts | 155° |
| 2026-05-07 18:57 | 60.30967 | 24.98286 | 188 ft | 9 kts | 242° |
| 2026-05-07 18:57 | 60.30961 | 24.98266 | 188 ft | 1 kts | 231° |
| 2026-05-07 18:57 | 60.30926 | 24.98253 | 188 ft | 9 kts | 166° |
| 2026-05-07 18:58 | 60.30856 | 24.98277 | 188 ft | 9 kts | 226° |
| 2026-05-07 18:58 | 60.30831 | 24.98167 | 188 ft | 3 kts | 246° |
| 2026-05-07 18:58 | 60.30829 | 24.98155 | 188 ft | 0 kts | 247° |